createdAt,value
2023-04-21T00:02:03.824Z,17.90
2023-04-21T00:04:34.020Z,14.77
2023-04-21T00:07:06.803Z,18.75
2023-04-21T00:09:36.937Z,19.10
2023-04-21T00:12:07.440Z,16.05
2023-04-21T00:14:37.568Z,15.13
2023-04-21T00:17:07.640Z,15.60
2023-04-21T00:19:37.926Z,15.45
2023-04-21T00:22:14.945Z,16.25
2023-04-21T00:24:45.004Z,20.02
2023-04-21T00:27:15.799Z,20.23
2023-04-21T00:29:46.055Z,21.02
2023-04-21T00:32:16.465Z,16.80
2023-04-21T00:34:46.527Z,13.45
2023-04-21T00:37:19.222Z,16.38
2023-04-21T00:39:49.227Z,18.83
2023-04-21T00:42:19.636Z,15.55
2023-04-21T00:44:49.680Z,21.90
2023-04-21T00:47:19.802Z,16.88
2023-04-21T00:49:50.208Z,17.70
2023-04-21T00:52:22.975Z,19.73
2023-04-21T00:54:53.526Z,22.13
2023-04-21T00:57:24.211Z,17.02
2023-04-21T00:59:54.399Z,22.52
2023-04-21T01:02:25.911Z,20.45
2023-04-21T01:04:55.999Z,22.75
2023-04-21T01:07:28.757Z,18.92
2023-04-21T01:09:59.969Z,23.67
2023-04-21T01:12:29.948Z,24.17
2023-04-21T01:15:00.290Z,24.60
2023-04-21T01:17:31.472Z,19.67
2023-04-21T01:20:04.934Z,23.75
2023-04-21T01:22:40.333Z,17.95
2023-04-21T01:25:11.581Z,18.42
2023-04-21T01:27:41.612Z,20.05
2023-04-21T01:30:13.154Z,19.60
2023-04-21T01:32:43.282Z,23.20
2023-04-21T01:35:13.800Z,19.13
2023-04-21T01:37:46.419Z,16.52
2023-04-21T01:40:16.700Z,18.48
2023-04-21T01:42:48.188Z,19.50
2023-04-21T01:45:18.212Z,22.77
2023-04-21T01:47:48.203Z,20.73
2023-04-21T01:50:18.393Z,17.10
2023-04-21T01:52:50.988Z,18.92
2023-04-21T01:55:21.486Z,22.73
2023-04-21T01:57:51.450Z,21.67
2023-04-21T02:00:22.161Z,17.90
2023-04-21T02:02:52.273Z,17.25
2023-04-21T02:05:22.473Z,20.15
2023-04-21T02:07:55.021Z,18.75
2023-04-21T02:10:25.239Z,24.98
2023-04-21T02:12:55.213Z,18.08
2023-04-21T02:15:25.178Z,15.43
2023-04-21T02:17:55.211Z,19.00
2023-04-21T02:20:25.294Z,21.80
2023-04-21T02:22:57.851Z,19.73
2023-04-21T02:25:28.300Z,21.77
2023-04-21T02:27:58.245Z,20.48
2023-04-21T02:30:28.251Z,19.98
2023-04-21T02:32:58.477Z,19.23
2023-04-21T02:35:28.608Z,19.02
2023-04-21T02:38:06.551Z,19.92
2023-04-21T02:40:36.594Z,16.92
2023-04-21T02:43:06.542Z,24.13
2023-04-21T02:45:36.550Z,20.00
2023-04-21T02:48:06.894Z,23.35
2023-04-21T02:50:37.048Z,23.05
2023-04-21T02:53:10.353Z,20.88
2023-04-21T02:55:40.320Z,20.27
2023-04-21T02:58:10.414Z,21.23
2023-04-21T03:00:40.644Z,19.70
2023-04-21T03:03:10.795Z,20.55
2023-04-21T03:05:40.919Z,18.77
2023-04-21T03:08:13.461Z,18.77
2023-04-21T03:10:43.670Z,19.73
2023-04-21T03:13:13.618Z,17.55
2023-04-21T03:15:43.568Z,23.52
2023-04-21T03:18:13.980Z,18.77
2023-04-21T03:20:44.158Z,19.35
2023-04-21T03:23:16.916Z,21.30
2023-04-21T03:25:46.911Z,18.98
2023-04-21T03:28:17.164Z,24.90
2023-04-21T03:30:47.129Z,26.80
2023-04-21T03:33:17.173Z,22.17
2023-04-21T03:35:47.170Z,20.75
2023-04-21T03:38:19.670Z,19.85
2023-04-21T03:40:49.614Z,20.77
2023-04-21T03:43:19.584Z,20.52
2023-04-21T03:45:49.590Z,19.58
2023-04-21T03:48:19.633Z,22.00
2023-04-21T03:50:49.639Z,19.75
2023-04-21T03:53:22.243Z,19.73
2023-04-21T03:55:53.475Z,19.38
2023-04-21T03:58:23.461Z,22.45
2023-04-21T04:00:53.466Z,26.65
2023-04-21T04:03:23.881Z,21.08
2023-04-21T04:05:54.002Z,21.75
2023-04-21T04:08:26.607Z,19.73
2023-04-21T04:10:56.865Z,24.17
2023-04-21T04:13:27.801Z,21.98
2023-04-21T04:15:58.076Z,22.13
2023-04-21T04:18:28.302Z,22.13
2023-04-21T04:20:58.302Z,22.42
2023-04-21T04:23:30.887Z,21.52
2023-04-21T04:26:01.789Z,21.23
2023-04-21T04:28:33.994Z,22.05
2023-04-21T04:31:04.219Z,21.20
2023-04-21T04:33:34.280Z,20.90
2023-04-21T04:36:04.332Z,21.75
2023-04-21T04:38:37.935Z,22.88
2023-04-21T04:41:09.186Z,22.67
2023-04-21T04:43:39.702Z,25.40
2023-04-21T04:46:13.188Z,25.73
2023-04-21T04:48:43.425Z,22.10
2023-04-21T04:51:13.759Z,22.42
2023-04-21T04:53:46.423Z,20.33
2023-04-21T04:56:16.406Z,19.05
2023-04-21T04:58:46.684Z,19.38
2023-04-21T05:01:17.439Z,22.38
2023-04-21T05:03:48.742Z,20.45
2023-04-21T05:06:18.784Z,22.92
2023-04-21T05:08:51.449Z,24.13
2023-04-21T05:11:21.597Z,21.20
2023-04-21T05:13:51.584Z,21.13
2023-04-21T05:16:21.634Z,20.77
2023-04-21T05:18:54.261Z,20.38
2023-04-21T05:21:29.102Z,25.42
2023-04-21T05:24:02.623Z,20.83
2023-04-21T05:26:33.018Z,23.50
2023-04-21T05:29:03.002Z,21.42
2023-04-21T05:31:33.289Z,22.05
2023-04-21T05:34:03.412Z,22.23
2023-04-21T05:36:33.443Z,20.00
2023-04-21T05:39:06.556Z,22.83
2023-04-21T05:41:36.506Z,23.48
2023-04-21T05:44:06.626Z,20.17
2023-04-21T05:46:36.752Z,19.35
2023-04-21T05:49:06.886Z,23.60
2023-04-21T05:51:37.121Z,20.60
2023-04-21T05:54:09.760Z,17.35
2023-04-21T05:56:39.788Z,24.80
2023-04-21T05:59:09.722Z,21.55
2023-04-21T06:01:39.712Z,19.80
2023-04-21T06:04:09.958Z,22.30
2023-04-21T06:06:40.155Z,21.08
2023-04-21T06:09:15.783Z,21.40
2023-04-21T06:11:45.853Z,20.30
2023-04-21T06:14:15.989Z,20.45
2023-04-21T06:16:46.359Z,18.73
2023-04-21T06:19:16.666Z,22.65
2023-04-21T06:21:46.906Z,19.73
2023-04-21T06:24:25.303Z,23.38
2023-04-21T06:26:56.459Z,25.13
2023-04-21T06:29:26.653Z,20.70
2023-04-21T06:31:56.855Z,19.40
2023-04-21T06:34:27.116Z,18.13
2023-04-21T06:36:57.215Z,18.98
2023-04-21T06:39:30.137Z,15.13
2023-04-21T06:42:01.434Z,19.33
2023-04-21T06:44:32.569Z,18.77
2023-04-21T06:47:02.995Z,10.45
2023-04-21T06:49:34.377Z,18.20
2023-04-21T06:52:05.003Z,21.25
2023-04-21T06:54:38.596Z,17.58
2023-04-21T06:57:08.901Z,11.70
2023-04-21T06:59:39.147Z,25.27
2023-04-21T07:02:09.742Z,19.15
2023-04-21T07:04:39.897Z,18.08
2023-04-21T07:07:10.060Z,18.27
2023-04-21T07:09:42.937Z,19.50
2023-04-21T07:12:13.021Z,18.83
2023-04-21T07:14:43.407Z,25.20
2023-04-21T07:17:13.710Z,18.40
2023-04-21T07:19:43.996Z,17.52
2023-04-21T07:22:14.151Z,22.00
2023-04-21T07:24:49.122Z,17.05
2023-04-21T07:27:19.611Z,23.73
2023-04-21T07:29:49.805Z,13.75
2023-04-21T07:32:20.056Z,17.73
2023-04-21T07:34:50.173Z,17.73
2023-04-21T07:37:22.841Z,17.75
2023-04-21T07:39:56.394Z,18.80
2023-04-21T07:42:27.079Z,16.00
2023-04-21T07:44:57.832Z,18.48
2023-04-21T07:47:28.089Z,19.98
2023-04-21T07:49:58.685Z,16.85
2023-04-21T07:52:29.079Z,17.42
2023-04-21T07:55:02.067Z,22.08
2023-04-21T07:57:34.719Z,15.68
2023-04-21T08:00:04.920Z,18.20
2023-04-21T08:02:35.500Z,19.80
2023-04-21T08:05:05.773Z,14.70
2023-04-21T08:07:36.320Z,18.88
2023-04-21T08:10:11.373Z,21.35
2023-04-21T08:12:41.718Z,17.17
2023-04-21T08:15:12.792Z,19.08
2023-04-21T08:17:43.026Z,15.82
2023-04-21T08:20:14.718Z,18.75
2023-04-21T08:22:47.293Z,16.15
2023-04-21T08:25:20.987Z,15.40
2023-04-21T08:27:51.311Z,14.63
2023-04-21T08:30:22.004Z,21.48
2023-04-21T08:32:52.378Z,12.98
2023-04-21T08:35:22.779Z,14.45
2023-04-21T08:37:53.537Z,18.10
2023-04-21T08:40:36.127Z,17.35
2023-04-21T08:43:07.226Z,17.00
2023-04-21T08:45:38.007Z,18.30
2023-04-21T08:48:10.099Z,21.40
2023-04-21T08:50:41.747Z,20.20
2023-04-21T08:53:12.033Z,19.88
2023-04-21T08:55:49.286Z,17.42
2023-04-21T08:58:22.928Z,15.55
2023-04-21T09:00:53.298Z,17.40
2023-04-21T09:03:26.589Z,15.50
2023-04-21T09:06:05.755Z,13.68
2023-04-21T09:08:38.290Z,17.33
2023-04-21T09:11:11.326Z,14.95
2023-04-21T09:13:41.639Z,15.93
2023-04-21T09:16:21.740Z,23.77
2023-04-21T09:18:53.578Z,15.52
2023-04-21T09:21:23.926Z,16.30
2023-04-21T09:23:56.299Z,10.93
2023-04-21T09:26:29.883Z,18.23
2023-04-21T09:29:00.389Z,16.75
2023-04-21T09:31:31.138Z,13.15
2023-04-21T09:34:01.772Z,17.38
2023-04-21T09:36:33.431Z,14.85
2023-04-21T09:41:42.003Z,15.38
2023-04-21T09:44:12.163Z,17.50
2023-04-21T09:46:47.221Z,13.77
2023-04-21T09:49:20.739Z,16.83
2023-04-21T09:54:30.539Z,18.80
2023-04-21T09:57:07.180Z,17.98
2023-04-21T09:59:40.718Z,17.92
2023-04-21T10:02:13.184Z,15.27
2023-04-21T10:04:46.037Z,12.65
2023-04-21T10:07:16.595Z,16.63
2023-04-21T10:09:53.759Z,17.33
2023-04-21T10:12:28.035Z,13.07
2023-04-21T10:14:59.278Z,12.00
2023-04-21T10:17:30.501Z,16.58
2023-04-21T10:20:01.624Z,15.70
2023-04-21T10:22:33.786Z,11.95
2023-04-21T10:25:06.534Z,14.10
2023-04-21T10:27:43.222Z,16.45
2023-04-21T10:30:23.142Z,15.90
2023-04-21T10:33:06.731Z,11.75
2023-04-21T10:36:15.916Z,15.30
2023-04-21T10:38:47.228Z,12.77
2023-04-21T10:41:30.952Z,19.67
2023-04-21T10:44:07.097Z,18.05
2023-04-21T10:46:39.697Z,15.95
2023-04-21T10:49:11.698Z,14.85
2023-04-21T10:52:11.102Z,15.60
2023-04-21T10:54:47.126Z,17.13
2023-04-21T10:57:21.914Z,14.80
2023-04-21T10:59:54.637Z,15.63
2023-04-21T11:02:24.955Z,14.50
2023-04-21T11:04:56.770Z,12.90
2023-04-21T11:07:27.845Z,14.32
2023-04-21T11:10:03.276Z,15.65
2023-04-21T11:12:35.448Z,12.63
2023-04-21T11:15:13.600Z,14.93
2023-04-21T11:17:43.987Z,14.73
2023-04-21T11:20:14.620Z,15.10
2023-04-21T11:22:45.165Z,15.55
2023-04-21T11:25:21.277Z,14.40
2023-04-21T11:28:00.308Z,15.93
2023-04-21T11:30:38.298Z,16.25
2023-04-21T11:33:08.808Z,13.32
2023-04-21T11:35:43.697Z,15.82
2023-04-21T11:38:14.999Z,12.75
2023-04-21T11:40:50.151Z,7.72
2023-04-21T11:43:20.477Z,11.60
2023-04-21T11:45:54.961Z,12.68
2023-04-21T11:50:55.198Z,16.88
2023-04-21T11:53:25.643Z,7.10
2023-04-21T11:55:57.219Z,12.93
2023-04-21T11:58:27.686Z,14.77
2023-04-21T12:01:00.685Z,16.05
2023-04-21T12:03:31.120Z,18.83
2023-04-21T12:06:01.604Z,11.65
2023-04-21T12:08:34.176Z,14.50
2023-04-21T12:11:06.073Z,9.32
2023-04-21T12:13:36.458Z,12.40
2023-04-21T12:16:10.399Z,14.40
2023-04-21T12:18:41.059Z,14.43
2023-04-21T12:21:11.417Z,10.00
2023-04-21T12:23:41.554Z,11.38
2023-04-21T12:26:12.131Z,9.70
2023-04-21T12:28:42.826Z,15.13
2023-04-21T12:31:16.087Z,10.63
2023-04-21T12:33:46.435Z,14.13
2023-04-21T12:36:16.955Z,12.18
2023-04-21T12:38:47.431Z,12.90
2023-04-21T12:41:17.675Z,9.55
2023-04-21T12:43:47.818Z,8.18
2023-04-21T12:46:20.674Z,11.63
2023-04-21T12:48:52.589Z,13.13
2023-04-21T12:51:23.082Z,12.02
2023-04-21T12:53:53.509Z,10.07
2023-04-21T12:56:23.970Z,12.23
2023-04-21T12:58:54.295Z,12.60
2023-04-21T13:01:28.278Z,9.23
2023-04-21T13:03:58.567Z,11.52
2023-04-21T13:06:29.150Z,7.82
2023-04-21T13:08:59.348Z,15.85
2023-04-21T13:11:29.683Z,15.05
2023-04-21T13:13:59.859Z,15.95
2023-04-21T13:16:32.958Z,12.55
2023-04-21T13:19:03.203Z,9.93
2023-04-21T13:21:34.635Z,9.98
2023-04-21T13:24:05.155Z,11.27
2023-04-21T13:26:36.403Z,9.48
2023-04-21T13:29:07.429Z,5.88
2023-04-21T13:31:40.697Z,14.40
2023-04-21T13:34:11.221Z,9.55
2023-04-21T13:36:41.422Z,9.77
2023-04-21T13:39:13.069Z,11.80
2023-04-21T13:41:43.231Z,12.93
2023-04-21T13:44:13.332Z,9.60
2023-04-21T13:46:46.219Z,8.82
2023-04-21T13:49:16.606Z,9.48
2023-04-21T13:51:46.643Z,11.43
2023-04-21T13:54:16.661Z,13.57
2023-04-21T13:56:46.777Z,11.23
2023-04-21T13:59:17.641Z,11.07
2023-04-21T14:01:50.331Z,13.32
2023-04-21T14:04:21.604Z,20.50
2023-04-21T14:06:53.037Z,12.30
2023-04-21T14:09:23.192Z,11.27
2023-04-21T14:11:54.122Z,12.30
2023-04-21T14:14:35.514Z,9.45
2023-04-21T14:17:10.461Z,10.05
2023-04-21T14:19:40.660Z,10.90
2023-04-21T14:22:10.652Z,10.30
2023-04-21T14:24:40.706Z,10.13
2023-04-21T14:27:10.862Z,9.85
2023-04-21T14:29:40.954Z,13.48
2023-04-21T14:32:13.638Z,14.15
2023-04-21T14:34:43.695Z,6.10
2023-04-21T14:37:13.723Z,10.95
2023-04-21T14:39:43.688Z,11.20
2023-04-21T14:42:13.707Z,10.68
2023-04-21T14:44:43.919Z,12.90
2023-04-21T14:47:17.355Z,9.27
2023-04-21T14:49:50.002Z,11.23
2023-04-21T14:52:20.081Z,12.07
2023-04-21T14:54:50.290Z,12.82
2023-04-21T14:57:21.911Z,10.88
2023-04-21T14:59:54.061Z,6.88
2023-04-21T15:02:26.866Z,7.07
2023-04-21T15:04:57.433Z,10.68
2023-04-21T15:07:27.697Z,12.73
2023-04-21T15:09:57.726Z,6.90
2023-04-21T15:12:28.159Z,7.78
2023-04-21T15:14:58.229Z,8.93
2023-04-21T15:17:30.939Z,10.30
2023-04-21T15:20:00.981Z,7.35
2023-04-21T15:22:31.518Z,8.02
2023-04-21T15:25:01.567Z,8.32
2023-04-21T15:27:31.644Z,9.95
2023-04-21T15:30:04.039Z,10.30
2023-04-21T15:32:36.967Z,10.70
2023-04-21T15:35:08.694Z,10.75
2023-04-21T15:37:38.932Z,9.95
2023-04-21T15:40:11.954Z,9.15
2023-04-21T15:42:42.251Z,11.70
2023-04-21T15:45:13.636Z,13.57
2023-04-21T15:47:46.328Z,11.25
2023-04-21T15:50:16.464Z,10.52
2023-04-21T15:52:46.946Z,11.68
2023-04-21T15:55:16.997Z,9.93
2023-04-21T15:57:48.586Z,10.55
2023-04-21T16:00:19.814Z,10.27
2023-04-21T16:02:52.898Z,10.32
2023-04-21T16:05:27.621Z,10.95
2023-04-21T16:07:59.099Z,11.07
2023-04-21T16:10:29.244Z,12.23
2023-04-21T16:12:59.502Z,6.93
2023-04-21T16:15:30.181Z,10.95
2023-04-21T16:18:06.700Z,9.00
2023-04-21T16:20:37.082Z,7.00
2023-04-21T16:23:07.550Z,9.63
2023-04-21T16:25:37.856Z,9.15
2023-04-21T16:28:09.446Z,9.55
2023-04-21T16:30:43.692Z,9.07
2023-04-21T16:35:47.080Z,8.82
2023-04-21T16:38:17.444Z,9.57
2023-04-21T16:40:48.128Z,9.73
2023-04-21T16:43:18.458Z,13.05
2023-04-21T16:45:48.580Z,9.90
2023-04-21T16:48:21.534Z,10.05
2023-04-21T16:50:53.961Z,14.20
2023-04-21T16:53:25.656Z,9.48
2023-04-21T16:55:56.196Z,10.30
2023-04-21T16:58:26.620Z,9.30
2023-04-21T17:00:57.751Z,9.90
2023-04-21T17:03:30.800Z,8.50
2023-04-21T17:06:00.860Z,10.07
2023-04-21T17:08:31.025Z,9.30
2023-04-21T17:11:01.050Z,12.98
2023-04-21T17:13:31.315Z,11.25
2023-04-21T17:16:01.593Z,9.02
2023-04-21T17:18:34.593Z,9.95
2023-04-21T17:21:06.319Z,13.05
2023-04-21T17:23:37.020Z,8.95
2023-04-21T17:26:08.175Z,9.38
2023-04-21T17:28:39.078Z,8.10
2023-04-21T17:31:15.730Z,8.50
2023-04-21T17:33:49.102Z,8.50
2023-04-21T17:36:19.316Z,8.68
2023-04-21T17:38:49.381Z,7.47
2023-04-21T17:41:20.169Z,8.38
2023-04-21T17:43:50.364Z,10.77
2023-04-21T17:46:21.722Z,77.65
2023-04-21T17:48:57.042Z,62.33
2023-04-21T17:51:28.873Z,14.77
2023-04-21T17:53:58.890Z,11.27
2023-04-21T17:56:28.883Z,9.05
2023-04-21T17:58:59.349Z,8.50
2023-04-21T18:01:30.458Z,10.35
2023-04-21T18:04:04.645Z,9.07
2023-04-21T18:06:35.090Z,7.93
2023-04-21T18:09:05.960Z,9.50
2023-04-21T18:11:36.163Z,9.55
2023-04-21T18:14:06.291Z,13.38
2023-04-21T18:16:36.474Z,11.73
2023-04-21T18:19:09.292Z,32.72
2023-04-21T18:21:39.677Z,27.02
2023-04-21T18:24:10.612Z,32.30
2023-04-21T18:26:41.135Z,57.00
2023-04-21T18:29:11.493Z,26.15
2023-04-21T18:31:42.110Z,13.13
2023-04-21T18:34:15.378Z,13.07
2023-04-21T18:36:45.773Z,10.05
2023-04-21T18:39:17.134Z,10.85
2023-04-21T18:41:48.605Z,13.93
2023-04-21T18:44:19.125Z,9.82
2023-04-21T18:46:49.505Z,10.90
2023-04-21T18:49:22.289Z,12.77
2023-04-21T18:51:52.320Z,10.55
2023-04-21T18:54:22.398Z,9.55
2023-04-21T18:56:52.486Z,9.80
2023-04-21T18:59:23.760Z,9.75
2023-04-21T19:01:54.276Z,10.00
2023-04-21T19:04:27.102Z,9.85
2023-04-21T19:06:57.260Z,9.10
2023-04-21T19:09:28.210Z,9.32
2023-04-21T19:11:58.370Z,9.15
2023-04-21T19:14:34.636Z,10.55
2023-04-21T19:17:09.682Z,9.40
2023-04-21T19:19:42.230Z,39.55
2023-04-21T19:22:12.254Z,32.85
2023-04-21T19:24:42.224Z,36.33
2023-04-21T19:27:12.224Z,12.32
2023-04-21T19:29:42.711Z,9.88
2023-04-21T19:32:12.758Z,19.02
2023-04-21T19:34:45.311Z,22.05
2023-04-21T19:37:15.731Z,12.60
2023-04-21T19:39:45.714Z,27.55
2023-04-21T19:42:15.672Z,12.85
2023-04-21T19:44:45.623Z,12.05
2023-04-21T19:47:15.795Z,12.30
2023-04-21T19:49:48.582Z,13.55
2023-04-21T19:52:18.619Z,43.78
2023-04-21T19:54:48.576Z,17.83
2023-04-21T19:57:18.623Z,31.42
2023-04-21T19:59:49.209Z,36.00
2023-04-21T20:02:19.654Z,22.23
2023-04-21T20:04:53.802Z,29.20
2023-04-21T20:07:24.095Z,34.00
2023-04-21T20:09:54.313Z,38.88
2023-04-21T20:12:24.399Z,31.27
2023-04-21T20:14:54.392Z,55.03
2023-04-21T20:17:24.523Z,37.28
2023-04-21T20:19:57.204Z,24.42
2023-04-21T20:22:27.259Z,23.30
2023-04-21T20:24:58.106Z,50.03
2023-04-21T20:27:28.473Z,117.07
2023-04-21T20:29:58.425Z,126.05
2023-04-21T20:32:28.624Z,67.28
2023-04-21T20:35:01.356Z,62.17
2023-04-21T20:37:33.627Z,31.02
2023-04-21T20:40:08.419Z,22.77
2023-04-21T20:42:38.582Z,22.77
2023-04-21T20:45:11.202Z,44.05
2023-04-21T20:47:41.867Z,19.00
2023-04-21T20:50:14.595Z,24.23
2023-04-21T20:52:44.599Z,25.35
2023-04-21T20:55:14.618Z,21.70
2023-04-21T20:57:44.643Z,20.08
2023-04-21T21:00:15.831Z,47.50
2023-04-21T21:02:45.957Z,16.65
2023-04-21T21:05:18.786Z,20.60
2023-04-21T21:07:48.770Z,18.13
2023-04-21T21:10:18.792Z,14.43
2023-04-21T21:12:48.754Z,16.42
2023-04-21T21:15:18.939Z,14.63
2023-04-21T21:17:48.988Z,12.90
2023-04-21T21:20:21.807Z,12.07
2023-04-21T21:22:51.800Z,15.25
2023-04-21T21:25:21.801Z,13.00
2023-04-21T21:27:51.773Z,12.63
2023-04-21T21:30:21.953Z,14.00
2023-04-21T21:32:53.980Z,14.05
2023-04-21T21:35:26.796Z,15.18
2023-04-21T21:37:57.138Z,14.45
2023-04-21T21:40:27.111Z,15.80
2023-04-21T21:42:57.037Z,17.42
2023-04-21T21:45:27.040Z,13.27
2023-04-21T21:47:57.072Z,12.98
2023-04-21T21:50:29.672Z,13.52
2023-04-21T21:52:59.604Z,19.77
2023-04-21T21:55:30.596Z,17.85
2023-04-21T21:58:03.514Z,20.88
2023-04-21T22:00:33.742Z,17.40
2023-04-21T22:03:03.818Z,15.90
2023-04-21T22:05:36.572Z,15.20
2023-04-21T22:08:06.744Z,14.10
2023-04-21T22:10:37.202Z,17.58
2023-04-21T22:13:07.162Z,17.33
2023-04-21T22:15:37.465Z,17.73
2023-04-21T22:18:08.218Z,13.68
2023-04-21T22:20:41.165Z,12.77
2023-04-21T22:23:11.262Z,14.15
2023-04-21T22:25:41.459Z,12.57
2023-04-21T22:28:11.614Z,12.65
2023-04-21T22:30:41.632Z,11.57
2023-04-21T22:33:11.701Z,11.60
2023-04-21T22:35:44.269Z,11.80
2023-04-21T22:38:14.316Z,15.50
2023-04-21T22:40:44.304Z,15.05
2023-04-21T22:43:14.463Z,14.73
2023-04-21T22:45:47.187Z,16.13
2023-04-21T22:48:17.214Z,15.90
2023-04-21T22:50:49.754Z,18.83
2023-04-21T22:53:19.688Z,14.88
2023-04-21T22:55:49.737Z,15.73
2023-04-21T22:58:19.722Z,14.75
2023-04-21T23:00:49.811Z,15.63
2023-04-21T23:03:19.925Z,14.88
2023-04-21T23:05:52.773Z,14.45
2023-04-21T23:08:22.719Z,13.70
2023-04-21T23:10:52.856Z,13.45
2023-04-21T23:13:22.795Z,16.08
2023-04-21T23:15:52.748Z,12.10
2023-04-21T23:18:22.682Z,15.93
2023-04-21T23:20:56.064Z,15.63
2023-04-21T23:23:26.114Z,13.45
2023-04-21T23:25:56.128Z,14.38
2023-04-21T23:28:26.625Z,13.15
2023-04-21T23:30:56.667Z,13.18
2023-04-21T23:33:26.996Z,11.40
2023-04-21T23:35:59.540Z,13.68
2023-04-21T23:38:29.526Z,13.18
2023-04-21T23:40:59.538Z,15.95
2023-04-21T23:43:29.566Z,17.35
2023-04-21T23:45:59.624Z,13.65
2023-04-21T23:48:29.959Z,15.82
2023-04-21T23:51:03.378Z,14.15
2023-04-21T23:53:33.371Z,14.90
2023-04-21T23:56:03.339Z,15.23
2023-04-21T23:58:33.283Z,16.85
